Time,TemperatureF,DewpointF,PressureIn,WindDirection,WindDirectionDegrees,WindSpeedMPH,WindSpeedGustMPH,Humidity,HourlyPrecipIn,Conditions,Clouds,dailyrainin,SoftwareType,DateUTC
2013-06-12 00:00:00,56.2,56.2,29.59,North,0,0.0,0.0,100,0.03,,,0.00,meteo_script,2013-06-12 04:00:00,
2013-06-12 00:05:00,56.2,56.2,29.59,North,0,0.0,0.0,100,0.03,,,0.00,meteo_script,2013-06-12 04:05:00,
2013-06-12 00:10:00,56.2,56.2,29.59,North,0,0.0,0.0,100,0.02,,,0.00,meteo_script,2013-06-12 04:10:00,
2013-06-12 00:15:00,56.2,56.2,29.60,North,0,0.0,0.0,100,0.02,,,0.00,meteo_script,2013-06-12 04:15:00,
2013-06-12 00:20:00,56.2,56.2,29.60,North,0,0.0,0.0,100,0.02,,,0.00,meteo_script,2013-06-12 04:20:00,
2013-06-12 00:25:00,56.2,56.2,29.60,North,0,0.0,0.0,100,0.02,,,0.00,meteo_script,2013-06-12 04:25:00,
2013-06-12 00:30:00,56.1,56.1,29.60,North,0,0.0,0.0,100,0.02,,,0.00,meteo_script,2013-06-12 04:30:00,
2013-06-12 00:35:00,56.1,56.1,29.59,North,0,0.0,0.0,100,0.01,,,0.00,meteo_script,2013-06-12 04:35:00,
2013-06-12 00:45:00,56.1,56.1,29.59,North,0,0.0,0.0,100,0.01,,,0.00,meteo_script,2013-06-12 04:45:00,
2013-06-12 00:50:00,56.1,56.1,29.59,North,0,0.0,0.0,100,0.01,,,0.00,meteo_script,2013-06-12 04:50:00,
2013-06-12 01:00:00,56.1,56.1,29.59,North,0,0.0,0.0,100,0.01,,,0.01,meteo_script,2013-06-12 05:00:00,
2013-06-12 01:05:00,56.1,56.1,29.59,North,0,0.0,0.0,100,0.01,,,0.01,meteo_script,2013-06-12 05:05:00,
2013-06-12 01:10:00,56.1,56.1,29.59,North,0,0.0,0.0,100,0.02,,,0.02,meteo_script,2013-06-12 05:10:00,
2013-06-12 01:20:00,56.2,56.2,29.58,North,0,0.0,0.0,100,0.02,,,0.02,meteo_script,2013-06-12 05:20:00,
2013-06-12 01:25:00,56.1,56.1,29.58,North,0,0.0,0.0,100,0.02,,,0.02,meteo_script,2013-06-12 05:25:00,
2013-06-12 01:30:00,56.1,56.1,29.58,North,0,0.0,0.0,100,0.02,,,0.02,meteo_script,2013-06-12 05:30:00,
2013-06-12 01:40:00,56.0,56.0,29.58,North,0,0.0,0.0,100,0.03,,,0.03,meteo_script,2013-06-12 05:40:00,
2013-06-12 01:45:00,56.1,56.1,29.58,North,0,0.0,0.0,100,0.03,,,0.03,meteo_script,2013-06-12 05:45:00,
2013-06-12 01:50:00,56.1,56.1,29.58,North,0,0.0,0.0,100,0.03,,,0.03,meteo_script,2013-06-12 05:50:00,
2013-06-12 02:00:00,56.1,56.1,29.58,North,0,0.0,0.0,100,0.03,,,0.04,meteo_script,2013-06-12 06:00:00,
2013-06-12 02:05:00,56.0,56.0,29.58,North,0,0.0,0.0,100,0.03,,,0.04,meteo_script,2013-06-12 06:05:00,
2013-06-12 02:15:00,56.0,56.0,29.58,North,0,0.0,0.0,100,0.03,,,0.05,meteo_script,2013-06-12 06:15:00,
2013-06-12 02:20:00,56.0,56.0,29.58,North,0,0.0,0.0,100,0.03,,,0.05,meteo_script,2013-06-12 06:20:00,
2013-06-12 02:25:00,56.0,56.0,29.58,North,0,0.0,0.0,100,0.03,,,0.05,meteo_script,2013-06-12 06:25:00,
2013-06-12 02:35:00,56.0,56.0,29.57,North,0,0.0,0.0,100,0.03,,,0.05,meteo_script,2013-06-12 06:35:00,
2013-06-12 02:40:00,56.0,56.0,29.57,North,0,0.0,0.0,100,0.02,,,0.05,meteo_script,2013-06-12 06:40:00,
2013-06-12 02:45:00,56.0,56.0,29.57,North,0,0.0,0.0,100,0.02,,,0.05,meteo_script,2013-06-12 06:45:00,
2013-06-12 02:55:00,55.9,55.9,29.57,North,0,0.0,0.0,100,0.02,,,0.06,meteo_script,2013-06-12 06:55:00,
2013-06-12 03:00:00,55.9,55.9,29.57,North,0,0.0,0.0,100,0.02,,,0.06,meteo_script,2013-06-12 07:00:00,
2013-06-12 03:05:00,56.0,56.0,29.57,North,0,0.0,0.0,100,0.02,,,0.06,meteo_script,2013-06-12 07:05:00,
2013-06-12 03:15:00,56.1,56.1,29.57,North,0,0.0,0.0,100,0.01,,,0.06,meteo_script,2013-06-12 07:15:00,
2013-06-12 03:20:00,56.1,56.1,29.57,North,0,0.0,0.0,100,0.01,,,0.06,meteo_script,2013-06-12 07:20:00,
2013-06-12 03:25:00,56.1,56.1,29.57,North,0,0.0,0.0,100,0.01,,,0.06,meteo_script,2013-06-12 07:25:00,
2013-06-12 03:35:00,55.9,55.9,29.57,North,0,0.0,0.0,100,0.01,,,0.06,meteo_script,2013-06-12 07:35:00,
2013-06-12 03:40:00,55.9,55.9,29.57,North,0,0.0,0.0,100,0.01,,,0.06,meteo_script,2013-06-12 07:40:00,
2013-06-12 03:45:00,55.8,55.8,29.57,North,0,0.0,1.0,100,0.01,,,0.06,meteo_script,2013-06-12 07:45:00,
2013-06-12 03:50:00,55.7,55.7,29.57,North,0,0.0,0.0,100,0.01,,,0.06,meteo_script,2013-06-12 07:50:00,
2013-06-12 03:55:00,55.6,55.6,29.57,North,0,0.0,0.0,100,0.00,,,0.06,meteo_script,2013-06-12 07:55:00,
2013-06-12 04:05:00,55.6,55.6,29.57,North,0,0.0,0.0,100,0.00,,,0.06,meteo_script,2013-06-12 08:05:00,
2013-06-12 04:10:00,55.6,55.6,29.58,North,0,0.0,0.0,100,0.00,,,0.06,meteo_script,2013-06-12 08:10:00,
2013-06-12 04:20:00,55.6,55.6,29.58,North,0,0.0,0.0,100,0.00,,,0.06,meteo_script,2013-06-12 08:20:00,
2013-06-12 04:25:00,55.7,55.7,29.58,North,0,0.0,0.0,100,0.00,,,0.06,meteo_script,2013-06-12 08:25:00,
2013-06-12 04:30:00,55.6,55.6,29.58,NW,306,0.0,1.0,100,0.00,,,0.06,meteo_script,2013-06-12 08:30:00,
2013-06-12 04:40:00,55.6,55.6,29.58,North,0,0.0,0.0,100,0.00,,,0.06,meteo_script,2013-06-12 08:40:00,
2013-06-12 04:45:00,55.5,55.5,29.58,North,0,0.0,0.0,100,0.00,,,0.06,meteo_script,2013-06-12 08:45:00,
2013-06-12 04:50:00,55.5,55.5,29.59,North,0,0.0,0.0,100,0.00,,,0.06,meteo_script,2013-06-12 08:50:00,
2013-06-12 05:00:00,55.5,55.5,29.59,North,0,0.0,0.0,100,0.01,,,0.07,meteo_script,2013-06-12 09:00:00,
2013-06-12 05:05:00,55.4,55.4,29.59,North,0,0.0,0.0,100,0.01,,,0.07,meteo_script,2013-06-12 09:05:00,
2013-06-12 05:15:00,55.4,55.4,29.60,North,0,0.0,0.0,100,0.01,,,0.07,meteo_script,2013-06-12 09:15:00,
2013-06-12 05:20:00,55.4,55.4,29.60,North,0,0.0,0.0,100,0.01,,,0.07,meteo_script,2013-06-12 09:20:00,
2013-06-12 05:25:00,55.4,55.4,29.60,North,0,0.0,0.0,100,0.01,,,0.07,meteo_script,2013-06-12 09:25:00,
2013-06-12 05:35:00,55.2,55.2,29.60,North,0,0.0,0.0,100,0.01,,,0.07,meteo_script,2013-06-12 09:35:00,
2013-06-12 05:40:00,55.2,55.2,29.60,North,0,0.0,0.0,100,0.01,,,0.07,meteo_script,2013-06-12 09:40:00,
2013-06-12 05:45:00,55.3,55.3,29.60,North,0,0.0,0.0,100,0.01,,,0.07,meteo_script,2013-06-12 09:45:00,
2013-06-12 05:55:00,55.5,55.5,29.60,North,0,0.0,0.0,100,0.01,,,0.07,meteo_script,2013-06-12 09:55:00,
2013-06-12 06:00:00,55.6,55.6,29.61,North,0,0.0,0.0,100,0.00,,,0.07,meteo_script,2013-06-12 10:00:00,
2013-06-12 06:10:00,55.8,55.8,29.61,North,0,0.0,0.0,100,0.00,,,0.07,meteo_script,2013-06-12 10:10:00,
2013-06-12 06:15:00,55.8,55.8,29.61,North,0,0.0,0.0,100,0.00,,,0.07,meteo_script,2013-06-12 10:15:00,
2013-06-12 06:20:00,55.9,55.9,29.61,North,0,0.0,0.0,100,0.00,,,0.07,meteo_script,2013-06-12 10:20:00,
2013-06-12 06:30:00,56.0,56.0,29.61,North,0,0.0,0.0,100,0.00,,,0.07,meteo_script,2013-06-12 10:30:00,
2013-06-12 06:35:00,56.1,56.1,29.61,North,0,0.0,0.0,100,0.00,,,0.07,meteo_script,2013-06-12 10:35:00,
2013-06-12 06:40:00,56.2,56.2,29.61,North,0,0.0,0.0,100,0.00,,,0.07,meteo_script,2013-06-12 10:40:00,
2013-06-12 06:50:00,56.5,56.5,29.61,North,0,0.0,0.0,100,0.00,,,0.07,meteo_script,2013-06-12 10:50:00,
2013-06-12 06:55:00,56.6,56.6,29.61,North,0,0.0,0.0,100,0.00,,,0.07,meteo_script,2013-06-12 10:55:00,
2013-06-12 07:05:00,56.7,56.7,29.61,North,0,0.0,0.0,100,0.00,,,0.07,meteo_script,2013-06-12 11:05:00,
2013-06-12 07:10:00,56.9,56.9,29.61,North,0,0.0,0.0,100,0.00,,,0.07,meteo_script,2013-06-12 11:10:00,
2013-06-12 07:15:00,57.1,57.1,29.61,North,0,0.0,0.0,100,0.00,,,0.07,meteo_script,2013-06-12 11:15:00,
2013-06-12 07:25:00,57.3,57.3,29.61,North,0,0.0,1.0,100,0.00,,,0.07,meteo_script,2013-06-12 11:25:00,
2013-06-12 07:30:00,57.4,57.4,29.61,NW,315,0.0,1.0,100,0.00,,,0.07,meteo_script,2013-06-12 11:30:00,
2013-06-12 07:40:00,57.8,57.8,29.61,North,0,0.1,2.0,100,0.00,,,0.07,meteo_script,2013-06-12 11:40:00,
2013-06-12 07:45:00,57.9,57.9,29.61,NW,315,0.2,2.0,100,0.00,,,0.07,meteo_script,2013-06-12 11:45:00,
2013-06-12 07:55:00,58.2,58.2,29.62,NW,315,0.5,2.0,100,0.00,,,0.07,meteo_script,2013-06-12 11:55:00,
2013-06-12 08:00:00,58.3,58.3,29.61,NW,315,0.4,2.0,100,0.00,,,0.07,meteo_script,2013-06-12 12:00:00,
2013-06-12 08:05:00,58.3,58.3,29.62,NW,315,0.3,2.0,100,0.00,,,0.07,meteo_script,2013-06-12 12:05:00,
2013-06-12 08:15:00,58.4,58.4,29.62,NW,315,0.3,2.0,100,0.00,,,0.07,meteo_script,2013-06-12 12:15:00,
2013-06-12 08:20:00,58.5,58.5,29.62,NW,315,0.2,2.0,100,0.00,,,0.07,meteo_script,2013-06-12 12:20:00,
2013-06-12 08:25:00,58.4,58.4,29.61,NW,315,0.3,1.0,100,0.00,,,0.07,meteo_script,2013-06-12 12:25:00,
2013-06-12 08:30:00,58.3,58.3,29.62,NW,315,0.5,3.0,100,0.00,,,0.07,meteo_script,2013-06-12 12:30:00,
2013-06-12 08:40:00,58.3,58.3,29.62,NW,315,0.4,4.0,100,0.00,,,0.07,meteo_script,2013-06-12 12:40:00,
2013-06-12 08:50:00,58.8,58.8,29.62,NW,315,0.5,3.0,100,0.00,,,0.07,meteo_script,2013-06-12 12:50:00,
2013-06-12 08:55:00,59.2,59.2,29.62,NW,315,0.4,3.0,100,0.00,,,0.07,meteo_script,2013-06-12 12:55:00,
2013-06-12 09:00:00,59.3,59.3,29.62,NW,315,0.7,3.0,100,0.00,,,0.07,meteo_script,2013-06-12 13:00:00,
2013-06-12 09:10:00,59.1,59.1,29.63,SW,219,0.6,2.0,100,0.00,,,0.07,meteo_script,2013-06-12 13:10:00,
2013-06-12 09:15:00,59.0,59.0,29.63,West,270,0.5,3.0,100,0.00,,,0.07,meteo_script,2013-06-12 13:15:00,
2013-06-12 09:25:00,59.3,59.3,29.63,WNW,294,0.5,2.0,100,0.00,,,0.07,meteo_script,2013-06-12 13:25:00,
2013-06-12 09:30:00,59.4,59.4,29.63,WNW,294,0.3,2.0,100,0.00,,,0.07,meteo_script,2013-06-12 13:30:00,
2013-06-12 09:40:00,59.4,59.4,29.63,WNW,294,0.3,2.0,100,0.00,,,0.07,meteo_script,2013-06-12 13:40:00,
2013-06-12 09:45:00,59.4,59.4,29.63,WNW,294,0.3,2.0,100,0.00,,,0.07,meteo_script,2013-06-12 13:45:00,
2013-06-12 09:50:00,60.2,60.2,29.63,WNW,294,0.5,3.0,100,0.00,,,0.07,meteo_script,2013-06-12 13:50:00,
2013-06-12 10:00:00,60.6,60.6,29.63,NNW,336,1.4,5.0,100,0.00,,,0.07,meteo_script,2013-06-12 14:00:00,
2013-06-12 10:05:00,60.6,60.6,29.63,NW,312,1.4,4.0,100,0.00,,,0.07,meteo_script,2013-06-12 14:05:00,
2013-06-12 10:10:00,61.0,61.0,29.63,NW,308,1.1,4.0,100,0.00,,,0.07,meteo_script,2013-06-12 14:10:00,
2013-06-12 10:20:00,61.1,61.1,29.64,NW,305,0.9,3.0,100,0.00,,,0.07,meteo_script,2013-06-12 14:20:00,
2013-06-12 10:25:00,61.3,61.3,29.64,NW,305,0.8,3.0,100,0.00,,,0.07,meteo_script,2013-06-12 14:25:00,
2013-06-12 10:30:00,61.4,61.4,29.64,NW,305,1.0,3.0,100,0.00,,,0.07,meteo_script,2013-06-12 14:30:00,
2013-06-12 10:35:00,61.4,61.4,29.64,NW,306,0.9,3.0,100,0.00,,,0.07,meteo_script,2013-06-12 14:35:00,
2013-06-12 10:40:00,61.5,61.5,29.63,NNW,327,1.3,7.0,100,0.00,,,0.07,meteo_script,2013-06-12 14:40:00,
2013-06-12 10:45:00,62.0,62.0,29.64,NNW,327,1.2,3.0,100,0.00,,,0.07,meteo_script,2013-06-12 14:45:00,
2013-06-12 10:55:00,63.0,62.8,29.64,NW,326,0.8,6.0,99,0.00,,,0.07,meteo_script,2013-06-12 14:55:00,
2013-06-12 11:00:00,63.6,62.7,29.64,NW,326,0.9,3.0,96,0.00,,,0.07,meteo_script,2013-06-12 15:00:00,
2013-06-12 11:05:00,64.6,63.8,29.64,NNW,328,0.6,2.0,97,0.00,,,0.07,meteo_script,2013-06-12 15:05:00,
2013-06-12 11:15:00,63.7,62.1,29.64,NNW,329,1.2,3.0,94,0.00,,,0.07,meteo_script,2013-06-12 15:15:00,
2013-06-12 11:20:00,63.6,62.3,29.64,NNW,332,1.1,5.0,95,0.00,,,0.07,meteo_script,2013-06-12 15:20:00,
2013-06-12 11:30:00,65.6,64.0,29.65,NW,309,1.6,5.0,94,0.00,,,0.07,meteo_script,2013-06-12 15:30:00,
2013-06-12 11:35:00,66.3,63.5,29.65,NW,312,1.3,4.0,90,0.00,,,0.07,meteo_script,2013-06-12 15:35:00,
2013-06-12 11:40:00,65.7,63.0,29.65,NW,312,1.2,4.0,91,0.00,,,0.07,meteo_script,2013-06-12 15:40:00,
2013-06-12 11:50:00,64.6,61.3,29.65,NNW,328,1.2,6.0,89,0.00,,,0.07,meteo_script,2013-06-12 15:50:00,
2013-06-12 11:55:00,64.2,61.8,29.65,NNW,348,1.4,5.0,91,0.00,,,0.07,meteo_script,2013-06-12 15:55:00,
2013-06-12 12:05:00,65.0,62.2,29.65,NNE,15,0.9,3.0,90,0.00,,,0.07,meteo_script,2013-06-12 16:05:00,
2013-06-12 12:10:00,64.9,62.5,29.65,WNW,303,0.9,4.0,91,0.00,,,0.07,meteo_script,2013-06-12 16:10:00,
2013-06-12 12:20:00,64.9,61.6,29.66,NW,312,1.7,4.0,89,0.00,,,0.07,meteo_script,2013-06-12 16:20:00,
2013-06-12 12:25:00,64.5,60.8,29.66,NNW,346,1.4,4.0,88,0.00,,,0.07,meteo_script,2013-06-12 16:25:00,
2013-06-12 12:35:00,66.0,62.8,29.66,WNW,301,1.2,4.0,89,0.00,,,0.07,meteo_script,2013-06-12 16:35:00,
2013-06-12 12:40:00,67.7,64.0,29.66,North,351,1.5,4.0,87,0.00,,,0.07,meteo_script,2013-06-12 16:40:00,
2013-06-12 12:45:00,67.3,63.6,29.66,NW,326,1.4,4.0,88,0.00,,,0.07,meteo_script,2013-06-12 16:45:00,
2013-06-12 12:55:00,67.2,63.5,29.66,WNW,282,2.0,6.0,87,0.00,,,0.07,meteo_script,2013-06-12 16:55:00,
2013-06-12 13:00:00,69.1,64.6,29.67,NW,316,1.9,6.0,85,0.00,,,0.07,meteo_script,2013-06-12 17:00:00,
2013-06-12 13:10:00,69.8,64.2,29.67,NW,314,2.4,8.0,82,0.00,,,0.07,meteo_script,2013-06-12 17:10:00,
2013-06-12 13:15:00,69.3,63.8,29.67,NW,325,2.6,6.0,82,0.00,,,0.07,meteo_script,2013-06-12 17:15:00,
2013-06-12 13:20:00,69.3,62.6,29.67,NNW,338,2.4,7.0,79,0.00,,,0.07,meteo_script,2013-06-12 17:20:00,
2013-06-12 13:25:00,69.0,62.7,29.67,NNW,333,2.3,6.0,80,0.00,,,0.07,meteo_script,2013-06-12 17:25:00,
2013-06-12 13:35:00,70.3,64.3,29.66,NW,308,2.1,5.0,81,0.00,,,0.07,meteo_script,2013-06-12 17:35:00,
2013-06-12 13:40:00,71.2,63.7,29.66,NNW,334,2.2,8.0,77,0.00,,,0.07,meteo_script,2013-06-12 17:40:00,
2013-06-12 13:50:00,70.6,63.3,29.67,NW,323,2.9,8.0,77,0.00,,,0.07,meteo_script,2013-06-12 17:50:00,
2013-06-12 13:55:00,72.0,64.1,29.67,NNW,333,2.7,7.0,76,0.00,,,0.07,meteo_script,2013-06-12 17:55:00,
2013-06-12 14:00:00,71.7,63.0,29.67,NNW,332,2.5,6.0,74,0.00,,,0.07,meteo_script,2013-06-12 18:00:00,
2013-06-12 14:10:00,71.5,63.9,29.67,NW,325,2.1,6.0,76,0.00,,,0.07,meteo_script,2013-06-12 18:10:00,
2013-06-12 14:15:00,71.8,63.5,29.68,NW,316,2.1,6.0,75,0.00,,,0.07,meteo_script,2013-06-12 18:15:00,
2013-06-12 14:25:00,72.4,63.9,29.68,NW,315,1.7,5.0,74,0.00,,,0.07,meteo_script,2013-06-12 18:25:00,
2013-06-12 14:30:00,72.1,63.6,29.68,NW,321,2.2,6.0,74,0.00,,,0.07,meteo_script,2013-06-12 18:30:00,
2013-06-12 14:40:00,72.4,63.3,29.68,NNW,331,3.0,9.0,73,0.00,,,0.07,meteo_script,2013-06-12 18:40:00,
2013-06-12 14:45:00,73.0,64.5,29.68,NW,316,3.0,8.0,74,0.00,,,0.07,meteo_script,2013-06-12 18:45:00,
2013-06-12 14:50:00,73.4,64.0,29.69,WNW,301,2.7,9.0,72,0.00,,,0.07,meteo_script,2013-06-12 18:50:00,
2013-06-12 15:00:00,72.8,64.5,29.69,WNW,300,2.1,7.0,75,0.00,,,0.07,meteo_script,2013-06-12 19:00:00,
2013-06-12 15:05:00,73.5,64.4,29.69,WNW,298,2.3,5.0,73,0.00,,,0.07,meteo_script,2013-06-12 19:05:00,
2013-06-12 15:15:00,73.0,63.8,29.69,NW,324,2.2,6.0,72,0.00,,,0.07,meteo_script,2013-06-12 19:15:00,
2013-06-12 15:20:00,73.2,64.3,29.69,NW,324,2.2,6.0,73,0.00,,,0.07,meteo_script,2013-06-12 19:20:00,
2013-06-12 15:25:00,72.7,63.4,29.69,NW,308,2.4,6.0,72,0.00,,,0.07,meteo_script,2013-06-12 19:25:00,
2013-06-12 15:35:00,72.8,63.2,29.69,NW,317,2.7,6.0,71,0.00,,,0.07,meteo_script,2013-06-12 19:35:00,
2013-06-12 15:40:00,73.0,64.4,29.69,NW,308,2.7,6.0,74,0.00,,,0.07,meteo_script,2013-06-12 19:40:00,
2013-06-12 15:50:00,73.1,63.4,29.70,NW,325,2.1,7.0,71,0.00,,,0.07,meteo_script,2013-06-12 19:50:00,
2013-06-12 15:55:00,72.1,63.0,29.69,NNW,337,2.1,7.0,73,0.00,,,0.07,meteo_script,2013-06-12 19:55:00,
2013-06-12 16:00:00,72.0,63.2,29.70,NNW,335,1.9,6.0,73,0.00,,,0.07,meteo_script,2013-06-12 20:00:00,
2013-06-12 16:05:00,71.7,63.2,29.70,NNW,338,1.4,4.0,74,0.00,,,0.07,meteo_script,2013-06-12 20:05:00,
2013-06-12 16:15:00,71.5,62.8,29.70,NNW,327,2.1,5.0,74,0.00,,,0.07,meteo_script,2013-06-12 20:15:00,
2013-06-12 16:25:00,71.5,62.8,29.70,NNW,332,1.7,11.0,74,0.00,,,0.07,meteo_script,2013-06-12 20:25:00,
2013-06-12 16:30:00,70.9,62.5,29.70,NNW,329,1.8,4.0,74,0.00,,,0.07,meteo_script,2013-06-12 20:30:00,
2013-06-12 16:35:00,70.2,62.2,29.70,NW,313,1.6,4.0,75,0.00,,,0.07,meteo_script,2013-06-12 20:35:00,
2013-06-12 16:45:00,69.3,61.6,29.71,NNW,334,1.6,6.0,76,0.00,,,0.07,meteo_script,2013-06-12 20:45:00,
2013-06-12 16:50:00,68.9,61.4,29.71,WNW,300,1.9,6.0,76,0.00,,,0.07,meteo_script,2013-06-12 20:50:00,
2013-06-12 16:55:00,69.0,62.3,29.71,NW,314,1.5,4.0,79,0.00,,,0.07,meteo_script,2013-06-12 20:55:00,
2013-06-12 17:05:00,69.0,61.6,29.72,WNW,300,1.5,5.0,77,0.00,,,0.07,meteo_script,2013-06-12 21:05:00,
2013-06-12 17:10:00,69.1,62.3,29.72,NW,315,1.1,3.0,78,0.00,,,0.07,meteo_script,2013-06-12 21:10:00,
2013-06-12 17:20:00,69.4,62.4,29.72,NW,321,0.8,5.0,78,0.00,,,0.07,meteo_script,2013-06-12 21:20:00,
2013-06-12 17:25:00,69.1,62.2,29.72,NNW,329,0.9,3.0,78,0.00,,,0.07,meteo_script,2013-06-12 21:25:00,
2013-06-12 17:35:00,68.6,61.5,29.72,NNW,331,0.8,4.0,78,0.00,,,0.07,meteo_script,2013-06-12 21:35:00,
2013-06-12 17:40:00,68.4,61.9,29.73,NNW,338,1.1,4.0,79,0.00,,,0.07,meteo_script,2013-06-12 21:40:00,
2013-06-12 17:50:00,68.4,62.2,29.73,NNW,335,0.7,3.0,80,0.00,,,0.07,meteo_script,2013-06-12 21:50:00,
2013-06-12 17:55:00,68.3,61.2,29.73,NNW,327,1.0,4.0,78,0.00,,,0.07,meteo_script,2013-06-12 21:55:00,
2013-06-12 18:00:00,68.3,61.7,29.73,NNW,336,0.9,2.0,79,0.00,,,0.07,meteo_script,2013-06-12 22:00:00,
2013-06-12 18:10:00,68.4,62.0,29.73,NNW,344,0.6,3.0,80,0.00,,,0.07,meteo_script,2013-06-12 22:10:00,
2013-06-12 18:15:00,68.0,61.5,29.74,NNW,345,0.4,2.0,80,0.00,,,0.07,meteo_script,2013-06-12 22:15:00,
2013-06-12 18:20:00,67.5,61.4,29.74,NNW,345,0.1,1.0,80,0.00,,,0.07,meteo_script,2013-06-12 22:20:00,
2013-06-12 18:30:00,66.7,61.2,29.74,NNW,345,0.1,1.0,82,0.00,,,0.07,meteo_script,2013-06-12 22:30:00,
2013-06-12 18:35:00,66.3,61.1,29.75,NNW,345,0.1,2.0,83,0.00,,,0.07,meteo_script,2013-06-12 22:35:00,
2013-06-12 18:45:00,66.1,61.0,29.76,NNW,343,0.5,2.0,83,0.00,,,0.07,meteo_script,2013-06-12 22:45:00,
2013-06-12 18:50:00,66.2,61.1,29.76,NNW,341,0.6,3.0,83,0.00,,,0.07,meteo_script,2013-06-12 22:50:00,
2013-06-12 18:55:00,66.4,61.1,29.76,NNW,340,0.7,3.0,83,0.00,,,0.07,meteo_script,2013-06-12 22:55:00,
2013-06-12 19:05:00,66.4,61.1,29.76,NNW,336,0.3,2.0,83,0.00,,,0.07,meteo_script,2013-06-12 23:05:00,
2013-06-12 19:10:00,66.3,60.7,29.76,North,0,0.3,3.0,82,0.00,,,0.07,meteo_script,2013-06-12 23:10:00,
2013-06-12 19:15:00,66.0,61.2,29.76,North,0,0.3,2.0,84,0.00,,,0.07,meteo_script,2013-06-12 23:15:00,
2013-06-12 19:25:00,65.2,60.6,29.77,North,0,0.3,2.0,85,0.00,,,0.07,meteo_script,2013-06-12 23:25:00,
2013-06-12 19:30:00,65.0,60.2,29.77,North,0,0.3,2.0,84,0.00,,,0.07,meteo_script,2013-06-12 23:30:00,
2013-06-12 19:35:00,64.8,60.2,29.77,North,0,0.2,2.0,85,0.00,,,0.07,meteo_script,2013-06-12 23:35:00,
2013-06-12 19:40:00,64.6,61.0,29.77,North,0,0.1,1.0,88,0.00,,,0.07,meteo_script,2013-06-12 23:40:00,
2013-06-12 19:50:00,64.2,60.8,29.78,North,0,0.1,1.0,88,0.00,,,0.07,meteo_script,2013-06-12 23:50:00,
2013-06-12 19:55:00,64.0,60.4,29.78,North,0,0.0,1.0,88,0.00,,,0.07,meteo_script,2013-06-12 23:55:00,
2013-06-12 20:00:00,63.7,60.1,29.78,North,0,0.0,1.0,88,0.00,,,0.07,meteo_script,2013-06-13 00:00:00,
2013-06-12 20:10:00,63.1,60.3,29.78,North,0,0.0,0.0,90,0.00,,,0.07,meteo_script,2013-06-13 00:10:00,
2013-06-12 20:15:00,62.7,60.1,29.79,North,0,0.0,1.0,91,0.00,,,0.07,meteo_script,2013-06-13 00:15:00,
2013-06-12 20:25:00,62.6,60.2,29.79,North,0,0.1,1.0,92,0.00,,,0.07,meteo_script,2013-06-13 00:25:00,
2013-06-12 20:30:00,62.6,59.9,29.79,North,0,0.1,1.0,91,0.00,,,0.07,meteo_script,2013-06-13 00:30:00,
2013-06-12 20:35:00,62.5,60.0,29.80,North,0,0.0,1.0,91,0.00,,,0.07,meteo_script,2013-06-13 00:35:00,
2013-06-12 20:45:00,62.4,60.0,29.80,North,0,0.1,1.0,92,0.00,,,0.07,meteo_script,2013-06-13 00:45:00,
2013-06-12 20:50:00,62.3,59.6,29.80,North,0,0.0,1.0,91,0.00,,,0.07,meteo_script,2013-06-13 00:50:00,
2013-06-12 20:55:00,62.2,59.7,29.80,North,0,0.0,1.0,91,0.00,,,0.07,meteo_script,2013-06-13 00:55:00,
2013-06-12 21:05:00,62.1,59.5,29.80,North,0,0.0,0.0,91,0.00,,,0.07,meteo_script,2013-06-13 01:05:00,
2013-06-12 21:10:00,62.0,59.3,29.81,North,0,0.0,0.0,91,0.00,,,0.07,meteo_script,2013-06-13 01:10:00,
2013-06-12 21:15:00,61.9,59.3,29.81,North,0,0.0,0.0,91,0.00,,,0.07,meteo_script,2013-06-13 01:15:00,
2013-06-12 21:25:00,61.7,59.3,29.82,North,0,0.0,0.0,92,0.00,,,0.07,meteo_script,2013-06-13 01:25:00,
2013-06-12 21:30:00,61.5,59.2,29.82,North,0,0.0,0.0,92,0.00,,,0.07,meteo_script,2013-06-13 01:30:00,
2013-06-12 21:35:00,61.5,59.2,29.82,North,0,0.0,0.0,92,0.00,,,0.07,meteo_script,2013-06-13 01:35:00,
2013-06-12 21:45:00,61.3,59.3,29.82,North,0,0.0,0.0,93,0.00,,,0.07,meteo_script,2013-06-13 01:45:00,
2013-06-12 21:55:00,61.2,59.2,29.82,North,0,0.0,0.0,93,0.00,,,0.07,meteo_script,2013-06-13 01:55:00,
2013-06-12 22:05:00,61.0,59.3,29.83,North,0,0.0,0.0,94,0.00,,,0.07,meteo_script,2013-06-13 02:05:00,
2013-06-12 22:10:00,61.0,59.4,29.83,North,0,0.0,0.0,94,0.00,,,0.07,meteo_script,2013-06-13 02:10:00,
2013-06-12 22:15:00,60.9,59.2,29.83,North,0,0.0,0.0,94,0.00,,,0.07,meteo_script,2013-06-13 02:15:00,
2013-06-12 22:25:00,60.9,59.2,29.83,North,0,0.0,0.0,94,0.00,,,0.07,meteo_script,2013-06-13 02:25:00,
2013-06-12 22:30:00,60.8,59.4,29.83,North,0,0.0,0.0,95,0.00,,,0.07,meteo_script,2013-06-13 02:30:00,
2013-06-12 22:35:00,60.8,59.2,29.83,North,0,0.0,0.0,94,0.00,,,0.07,meteo_script,2013-06-13 02:35:00,
2013-06-12 22:45:00,60.6,59.2,29.83,North,0,0.0,0.0,95,0.00,,,0.07,meteo_script,2013-06-13 02:45:00,
2013-06-12 22:50:00,60.4,59.0,29.83,North,0,0.0,0.0,95,0.00,,,0.07,meteo_script,2013-06-13 02:50:00,
2013-06-12 22:55:00,60.2,58.8,29.83,North,0,0.0,0.0,95,0.00,,,0.07,meteo_script,2013-06-13 02:55:00,
2013-06-12 23:05:00,59.7,58.6,29.82,North,0,0.0,0.0,96,0.00,,,0.07,meteo_script,2013-06-13 03:05:00,
2013-06-12 23:10:00,59.5,58.7,29.82,North,0,0.0,0.0,97,0.00,,,0.07,meteo_script,2013-06-13 03:10:00,
2013-06-12 23:15:00,59.3,58.7,29.82,North,0,0.0,0.0,97,0.00,,,0.07,meteo_script,2013-06-13 03:15:00,
2013-06-12 23:25:00,59.0,58.7,29.82,North,0,0.0,0.0,99,0.00,,,0.07,meteo_script,2013-06-13 03:25:00,
2013-06-12 23:30:00,58.8,58.5,29.81,North,0,0.0,0.0,99,0.00,,,0.07,meteo_script,2013-06-13 03:30:00,
2013-06-12 23:35:00,58.6,58.6,29.82,North,0,0.0,0.0,100,0.00,,,0.07,meteo_script,2013-06-13 03:35:00,
2013-06-12 23:45:00,58.0,58.0,29.82,North,0,0.0,0.0,100,0.00,,,0.07,meteo_script,2013-06-13 03:45:00,
2013-06-12 23:50:00,57.8,57.8,29.82,North,0,0.0,0.0,100,0.00,,,0.07,meteo_script,2013-06-13 03:50:00,